createdAt,value
2022-09-20T00:01:41.330Z,12.51
2022-09-20T00:04:08.465Z,12.49
2022-09-20T00:06:35.816Z,12.50
2022-09-20T00:09:03.502Z,12.44
2022-09-20T00:11:32.631Z,12.45
2022-09-20T00:14:01.444Z,12.53
2022-09-20T00:16:31.770Z,12.50
2022-09-20T00:19:00.594Z,12.46
2022-09-20T00:21:29.345Z,12.50
2022-09-20T00:23:59.404Z,12.55
2022-09-20T00:26:27.661Z,12.57
2022-09-20T00:28:55.110Z,12.53
2022-09-20T00:31:22.971Z,12.62
2022-09-20T00:34:08.481Z,12.48
2022-09-20T00:36:35.047Z,12.53
2022-09-20T00:39:02.878Z,12.61
2022-09-20T00:41:31.677Z,12.59
2022-09-20T00:43:59.106Z,12.58
2022-09-20T00:46:37.798Z,12.56
2022-09-20T00:49:15.033Z,12.52
2022-09-20T00:51:46.323Z,12.57
2022-09-20T00:54:18.190Z,12.46
2022-09-20T00:56:46.762Z,12.40
2022-09-20T00:59:25.582Z,12.50
2022-09-20T01:01:57.407Z,12.38
2022-09-20T01:04:27.501Z,12.38
2022-09-20T01:06:57.839Z,12.41
2022-09-20T01:09:24.320Z,12.42
2022-09-20T01:11:52.072Z,12.40
2022-09-20T01:14:19.745Z,12.37
2022-09-20T01:16:46.365Z,12.34
2022-09-20T01:19:33.083Z,12.36
2022-09-20T01:22:04.005Z,12.33
2022-09-20T01:24:33.452Z,12.38
2022-09-20T01:27:35.683Z,12.30
2022-09-20T01:30:08.628Z,12.35
2022-09-20T01:32:47.512Z,12.33
2022-09-20T01:35:17.189Z,12.29
2022-09-20T01:38:11.017Z,12.35
2022-09-20T01:40:56.525Z,12.34
2022-09-20T01:43:52.645Z,12.29
2022-09-20T01:46:19.148Z,12.35
2022-09-20T01:48:45.850Z,12.36
2022-09-20T01:51:31.907Z,12.34
2022-09-20T01:54:09.804Z,12.31
2022-09-20T01:56:55.244Z,12.26
2022-09-20T01:59:46.718Z,12.24
2022-09-20T02:02:36.182Z,12.29
2022-09-20T02:05:24.076Z,12.29
2022-09-20T02:08:15.956Z,12.31
2022-09-20T02:11:07.028Z,12.32
2022-09-20T02:13:41.469Z,12.19
2022-09-20T02:16:48.224Z,12.21
2022-09-20T02:19:32.925Z,12.22
2022-09-20T02:22:22.632Z,12.23
2022-09-20T02:25:14.257Z,12.27
2022-09-20T02:28:17.364Z,12.18
2022-09-20T02:31:16.806Z,12.19
2022-09-20T02:33:56.161Z,12.16
2022-09-20T02:36:58.154Z,12.18
2022-09-20T02:39:36.763Z,12.17
2022-09-20T02:42:18.236Z,12.20
2022-09-20T02:45:30.875Z,12.22
2022-09-20T02:48:03.652Z,12.18
2022-09-20T02:50:59.438Z,12.20
2022-09-20T02:53:45.786Z,12.22
2022-09-20T02:56:15.249Z,12.21
2022-09-20T02:58:56.945Z,12.22
2022-09-20T03:02:00.790Z,12.21
2022-09-20T03:04:53.845Z,12.14
2022-09-20T03:07:25.869Z,12.19
2022-09-20T03:10:11.047Z,12.15
2022-09-20T03:13:00.935Z,12.05
2022-09-20T03:15:40.591Z,12.01
2022-09-20T03:18:46.094Z,12.03
2022-09-20T03:21:31.180Z,11.96
2022-09-20T03:24:35.345Z,11.93
2022-09-20T03:27:17.344Z,11.91
2022-09-20T03:30:10.163Z,11.89
2022-09-20T03:32:39.537Z,11.82
2022-09-20T03:35:26.827Z,11.81
2022-09-20T03:38:10.751Z,11.82
2022-09-20T03:41:05.253Z,11.81
2022-09-20T03:43:58.598Z,11.75
2022-09-20T03:46:29.566Z,11.78
2022-09-20T03:49:20.739Z,11.77
2022-09-20T03:52:32.570Z,11.78
2022-09-20T03:55:22.746Z,11.70
2022-09-20T03:58:12.464Z,11.74
2022-09-20T04:00:45.616Z,11.71
2022-09-20T04:03:58.748Z,11.68
2022-09-20T04:07:02.768Z,11.71
2022-09-20T04:09:37.742Z,11.72
2022-09-20T04:12:20.964Z,11.72
2022-09-20T04:15:02.996Z,11.71
2022-09-20T04:17:32.524Z,11.72
2022-09-20T04:20:07.053Z,11.67
2022-09-20T04:22:33.690Z,11.63
2022-09-20T04:25:12.908Z,11.57
2022-09-20T04:27:45.305Z,11.58
2022-09-20T04:30:19.756Z,11.57
2022-09-20T04:32:52.404Z,11.56
2022-09-20T04:36:05.692Z,11.54
2022-09-20T04:38:33.915Z,11.49
2022-09-20T04:41:12.889Z,11.49
2022-09-20T04:43:53.728Z,11.42
2022-09-20T04:46:56.265Z,11.46
2022-09-20T04:49:53.329Z,11.45
2022-09-20T04:52:29.105Z,11.41
2022-09-20T04:55:27.129Z,11.39
2022-09-20T04:58:24.337Z,11.38
2022-09-20T05:01:19.895Z,11.38
2022-09-20T05:04:08.173Z,11.36
2022-09-20T05:07:04.343Z,11.34
2022-09-20T05:10:11.205Z,11.33
2022-09-20T05:12:54.617Z,11.34
2022-09-20T05:15:39.429Z,11.31
2022-09-20T05:18:20.973Z,11.35
2022-09-20T05:21:09.324Z,11.35
2022-09-20T05:23:55.445Z,11.40
2022-09-20T05:26:58.233Z,11.43
2022-09-20T05:29:49.038Z,11.45
2022-09-20T05:32:29.174Z,11.50
2022-09-20T05:35:06.731Z,11.50
2022-09-20T05:38:03.927Z,11.53
2022-09-20T05:40:49.239Z,11.49
2022-09-20T05:43:38.216Z,11.47
2022-09-20T05:46:27.934Z,11.50
2022-09-20T05:49:12.169Z,11.46
2022-09-20T05:52:07.903Z,11.46
2022-09-20T05:55:01.289Z,11.42
2022-09-20T05:58:04.976Z,11.41
2022-09-20T06:00:42.302Z,11.52
2022-09-20T06:03:35.698Z,11.57
2022-09-20T06:06:38.193Z,11.63
2022-09-20T06:09:42.312Z,11.68
2022-09-20T06:12:26.271Z,11.74
2022-09-20T06:15:22.581Z,11.73
2022-09-20T06:18:20.487Z,11.69
2022-09-20T06:20:50.896Z,11.69
2022-09-20T06:23:18.340Z,11.67
2022-09-20T06:26:00.662Z,11.75
2022-09-20T06:28:32.344Z,11.80
2022-09-20T06:30:58.967Z,11.88
2022-09-20T06:33:28.249Z,11.88
2022-09-20T06:36:22.073Z,11.92
2022-09-20T06:39:41.718Z,12.03
2022-09-20T06:42:10.143Z,12.07
2022-09-20T06:44:41.134Z,12.16
2022-09-20T06:47:10.742Z,12.13
2022-09-20T06:49:37.230Z,12.20
2022-09-20T06:52:07.844Z,12.20
2022-09-20T06:54:34.734Z,12.29
2022-09-20T06:57:04.722Z,12.22
2022-09-20T06:59:31.888Z,12.29
2022-09-20T07:01:58.563Z,12.35
2022-09-20T07:04:26.909Z,12.34
2022-09-20T07:07:08.631Z,12.44
2022-09-20T07:09:37.455Z,12.49
2022-09-20T07:12:04.054Z,12.64
2022-09-20T07:14:31.121Z,12.72
2022-09-20T07:16:57.597Z,12.83
2022-09-20T07:19:26.415Z,13.02
2022-09-20T07:21:54.029Z,13.17
2022-09-20T07:24:20.494Z,13.24
2022-09-20T07:27:03.568Z,13.43
2022-09-20T07:29:30.304Z,13.46
2022-09-20T07:31:57.244Z,13.68
2022-09-20T07:34:24.251Z,13.73
2022-09-20T07:36:51.240Z,13.74
2022-09-20T07:39:18.096Z,13.82
2022-09-20T07:41:48.585Z,13.99
2022-09-20T07:44:21.990Z,14.02
2022-09-20T07:46:49.521Z,14.06
2022-09-20T07:49:16.083Z,14.14
2022-09-20T07:51:42.636Z,14.26
2022-09-20T07:54:09.420Z,14.46
2022-09-20T07:56:36.334Z,14.76
2022-09-20T07:59:02.934Z,14.87
2022-09-20T08:01:29.890Z,14.80
2022-09-20T08:03:57.388Z,14.80
2022-09-20T08:06:24.316Z,14.77
2022-09-20T08:08:51.740Z,14.71
2022-09-20T08:11:27.764Z,14.67
2022-09-20T08:14:11.349Z,14.60
2022-09-20T08:16:47.116Z,14.57
2022-09-20T08:19:21.900Z,14.53
2022-09-20T08:21:50.037Z,14.42
2022-09-20T08:24:17.158Z,14.35
2022-09-20T08:26:44.039Z,14.23
2022-09-20T08:29:11.631Z,14.25
2022-09-20T08:31:42.167Z,13.95
2022-09-20T08:34:10.297Z,14.06
2022-09-20T08:36:46.258Z,14.08
2022-09-20T08:42:19.959Z,14.10
2022-09-20T08:44:59.520Z,14.23
2022-09-20T08:47:36.689Z,14.20
2022-09-20T08:50:10.351Z,14.12
2022-09-20T08:52:40.104Z,14.08
2022-09-20T08:55:37.647Z,14.19
2022-09-20T08:58:08.538Z,14.35
2022-09-20T09:00:37.276Z,14.40
2022-09-20T09:03:12.043Z,14.41
2022-09-20T09:05:45.499Z,14.53
2022-09-20T09:08:16.569Z,14.63
2022-09-20T09:10:52.611Z,14.77
2022-09-20T09:13:25.921Z,14.66
2022-09-20T09:15:59.580Z,14.82
2022-09-20T09:18:36.313Z,14.43
2022-09-20T09:21:04.914Z,14.87
2022-09-20T09:23:50.288Z,15.08
2022-09-20T09:26:21.129Z,15.17
2022-09-20T09:29:14.903Z,15.26
2022-09-20T09:31:41.749Z,15.41
2022-09-20T09:34:31.279Z,15.60
2022-09-20T09:36:58.398Z,15.71
2022-09-20T09:39:30.466Z,15.78
2022-09-20T09:42:01.124Z,15.92
2022-09-20T09:44:32.722Z,16.26
2022-09-20T09:46:59.947Z,16.45
2022-09-20T09:49:34.259Z,16.57
2022-09-20T09:52:03.528Z,16.72
2022-09-20T09:54:47.075Z,16.74
2022-09-20T09:57:22.410Z,16.93
2022-09-20T10:00:20.978Z,17.00
2022-09-20T10:03:07.784Z,17.09
2022-09-20T10:05:54.134Z,17.03
2022-09-20T10:08:39.952Z,16.96
2022-09-20T10:11:32.748Z,16.83
2022-09-20T10:14:20.671Z,16.82
2022-09-20T10:17:16.665Z,16.68
2022-09-20T10:20:08.793Z,16.90
2022-09-20T10:23:21.425Z,16.92
2022-09-20T10:25:41.446Z,17.05
2022-09-20T10:28:48.540Z,16.77
2022-09-20T10:31:39.251Z,16.66
2022-09-20T10:34:22.765Z,16.53
2022-09-20T10:36:55.747Z,16.54
2022-09-20T10:39:29.379Z,16.27
2022-09-20T10:42:40.713Z,16.16
2022-09-20T10:45:17.694Z,16.12
2022-09-20T10:48:19.380Z,16.29
2022-09-20T10:50:58.073Z,16.44
2022-09-20T10:53:33.793Z,16.33
2022-09-20T10:56:09.665Z,16.16
2022-09-20T10:59:14.478Z,16.50
2022-09-20T11:02:19.679Z,16.58
2022-09-20T11:05:16.943Z,16.65
2022-09-20T11:07:54.778Z,16.94
2022-09-20T11:10:25.441Z,17.09
2022-09-20T11:12:55.433Z,17.21
2022-09-20T11:15:32.397Z,17.18
2022-09-20T11:18:23.446Z,17.28
2022-09-20T11:21:02.130Z,17.65
2022-09-20T11:24:00.794Z,17.61
2022-09-20T11:26:52.038Z,17.80
2022-09-20T11:29:27.574Z,17.91
2022-09-20T11:32:00.726Z,18.11
2022-09-20T11:34:36.446Z,17.95
2022-09-20T11:37:03.232Z,17.98
2022-09-20T11:39:54.522Z,17.97
2022-09-20T11:42:24.255Z,17.66
2022-09-20T11:44:51.368Z,17.61
2022-09-20T11:47:49.737Z,17.83
2022-09-20T11:50:34.777Z,17.86
2022-09-20T11:53:36.668Z,17.75
2022-09-20T11:56:11.067Z,17.79
2022-09-20T11:59:05.750Z,17.98
2022-09-20T12:01:39.096Z,17.88
2022-09-20T12:04:32.412Z,18.04
2022-09-20T12:07:18.102Z,18.10
2022-09-20T12:10:01.102Z,18.01
2022-09-20T12:12:44.017Z,18.04
2022-09-20T12:15:23.858Z,18.02
2022-09-20T12:17:51.211Z,18.06
2022-09-20T12:20:33.015Z,18.05
2022-09-20T12:23:36.995Z,17.96
2022-09-20T12:26:06.518Z,18.04
2022-09-20T12:28:44.489Z,18.12
2022-09-20T12:31:26.139Z,17.92
2022-09-20T12:34:10.885Z,17.90
2022-09-20T12:36:37.438Z,17.86
2022-09-20T12:39:22.393Z,17.94
2022-09-20T12:41:49.894Z,17.86
2022-09-20T12:44:35.353Z,17.86
2022-09-20T12:47:17.295Z,17.80
2022-09-20T12:50:05.511Z,17.84
2022-09-20T12:52:50.339Z,17.94
2022-09-20T12:55:29.896Z,17.90
2022-09-20T12:58:01.394Z,17.93
2022-09-20T13:00:50.335Z,18.05
2022-09-20T13:03:43.996Z,18.15
2022-09-20T13:06:19.354Z,18.27
2022-09-20T13:09:01.147Z,18.17
2022-09-20T13:11:33.566Z,18.32
2022-09-20T13:14:07.086Z,18.40
2022-09-20T13:16:49.822Z,18.40
2022-09-20T13:19:20.343Z,18.42
2022-09-20T13:21:56.412Z,18.54
2022-09-20T13:24:27.604Z,18.81
2022-09-20T13:26:59.449Z,18.99
2022-09-20T13:29:33.078Z,19.18
2022-09-20T13:32:35.858Z,18.88
2022-09-20T13:35:23.981Z,18.53
2022-09-20T13:37:56.022Z,18.42
2022-09-20T13:40:33.592Z,18.30
2022-09-20T13:43:23.011Z,18.52
2022-09-20T13:45:56.167Z,18.63
2022-09-20T13:48:30.341Z,19.04
2022-09-20T13:50:57.437Z,19.03
2022-09-20T13:53:40.982Z,18.77
2022-09-20T13:56:20.191Z,18.52
2022-09-20T13:58:48.224Z,18.60
2022-09-20T14:01:29.209Z,18.53
2022-09-20T14:04:05.259Z,18.22
2022-09-20T14:06:32.405Z,17.96
2022-09-20T14:09:02.114Z,17.83
2022-09-20T14:11:33.776Z,17.86
2022-09-20T14:14:03.114Z,17.77
2022-09-20T14:16:34.759Z,18.00
2022-09-20T14:19:03.104Z,18.09
2022-09-20T14:21:32.771Z,18.17
2022-09-20T14:24:03.121Z,18.23
2022-09-20T14:26:37.545Z,18.32
2022-09-20T14:29:43.147Z,18.77
2022-09-20T14:32:36.131Z,19.17
2022-09-20T14:35:08.278Z,19.40
2022-09-20T14:37:49.851Z,19.55
2022-09-20T14:40:26.904Z,19.14
2022-09-20T14:43:05.596Z,19.04
2022-09-20T14:45:41.178Z,18.97
2022-09-20T14:48:11.641Z,19.02
2022-09-20T14:50:46.446Z,19.01
2022-09-20T14:53:18.744Z,18.79
2022-09-20T14:56:04.391Z,18.63
2022-09-20T14:58:35.474Z,18.44
2022-09-20T15:01:07.175Z,18.38
2022-09-20T15:03:41.425Z,18.23
2022-09-20T15:06:14.262Z,18.15
2022-09-20T15:08:46.146Z,18.17
2022-09-20T15:11:19.363Z,18.22
2022-09-20T15:13:46.004Z,18.18
2022-09-20T15:16:21.159Z,18.56
2022-09-20T15:18:47.969Z,18.56
2022-09-20T15:21:14.409Z,18.67
2022-09-20T15:23:41.173Z,18.62
2022-09-20T15:26:15.032Z,18.81
2022-09-20T15:28:41.498Z,19.22
2022-09-20T15:31:09.480Z,19.77
2022-09-20T15:33:36.059Z,20.17
2022-09-20T15:36:03.214Z,20.33
2022-09-20T15:38:30.429Z,20.65
2022-09-20T15:41:00.206Z,20.39
2022-09-20T15:43:27.969Z,20.80
2022-09-20T15:45:57.024Z,20.99
2022-09-20T15:48:26.118Z,20.74
2022-09-20T15:51:13.319Z,20.14
2022-09-20T15:53:45.483Z,20.03
2022-09-20T15:56:23.958Z,19.56
2022-09-20T15:58:52.188Z,19.10
2022-09-20T16:01:19.563Z,18.52
2022-09-20T16:03:47.157Z,18.10
2022-09-20T16:06:13.858Z,17.80
2022-09-20T16:08:42.477Z,17.62
2022-09-20T16:11:12.818Z,17.50
2022-09-20T16:13:39.639Z,17.45
2022-09-20T16:16:08.604Z,17.39
2022-09-20T16:18:54.978Z,17.21
2022-09-20T16:21:22.241Z,17.17
2022-09-20T16:23:52.281Z,17.39
2022-09-20T16:26:21.163Z,17.48
2022-09-20T16:28:49.092Z,17.57
2022-09-20T16:31:34.887Z,17.54
2022-09-20T16:34:03.702Z,17.37
2022-09-20T16:36:31.248Z,17.26
2022-09-20T16:38:58.642Z,17.29
2022-09-20T16:41:26.998Z,17.08
2022-09-20T16:43:53.715Z,17.77
2022-09-20T16:46:27.819Z,17.92
2022-09-20T16:48:55.691Z,18.23
2022-09-20T16:51:26.815Z,18.52
2022-09-20T16:53:55.777Z,18.90
2022-09-20T16:56:24.551Z,18.50
2022-09-20T16:58:51.466Z,18.20
2022-09-20T17:01:21.089Z,17.62
2022-09-20T17:03:47.671Z,17.34
2022-09-20T17:06:16.801Z,17.20
2022-09-20T17:08:45.013Z,17.02
2022-09-20T17:11:17.148Z,16.96
2022-09-20T17:13:45.389Z,16.86
2022-09-20T17:16:14.385Z,16.61
2022-09-20T17:18:43.134Z,16.58
2022-09-20T17:21:16.567Z,16.48
2022-09-20T17:23:50.626Z,16.41
2022-09-20T17:26:26.418Z,16.21
2022-09-20T17:28:56.439Z,16.16
2022-09-20T17:31:32.069Z,15.84
2022-09-20T17:34:04.159Z,15.59
2022-09-20T17:36:33.288Z,15.90
2022-09-20T17:39:08.355Z,15.72
2022-09-20T17:41:36.655Z,15.61
2022-09-20T17:44:12.317Z,15.62
2022-09-20T17:46:47.152Z,15.37
2022-09-20T17:49:21.894Z,15.62
2022-09-20T17:51:53.958Z,15.54
2022-09-20T17:54:22.021Z,15.56
2022-09-20T17:56:50.571Z,15.57
2022-09-20T17:59:20.143Z,15.55
2022-09-20T18:01:49.367Z,15.33
2022-09-20T18:04:16.211Z,15.38
2022-09-20T18:06:47.829Z,15.34
2022-09-20T18:09:19.590Z,15.22
2022-09-20T18:11:51.616Z,15.25
2022-09-20T18:14:20.566Z,15.26
2022-09-20T18:16:47.738Z,15.19
2022-09-20T18:19:16.837Z,14.92
2022-09-20T18:21:43.814Z,15.07
2022-09-20T18:24:14.170Z,14.91
2022-09-20T18:26:41.012Z,15.02
2022-09-20T18:29:12.214Z,14.91
2022-09-20T18:31:55.653Z,14.86
2022-09-20T18:34:24.257Z,14.84
2022-09-20T18:36:53.746Z,14.78
2022-09-20T18:39:25.397Z,14.58
2022-09-20T18:41:53.414Z,14.53
2022-09-20T18:44:21.399Z,14.67
2022-09-20T18:46:51.219Z,14.56
2022-09-20T18:49:17.830Z,14.39
2022-09-20T18:51:48.422Z,14.31
2022-09-20T18:54:15.037Z,14.49
2022-09-20T18:56:43.524Z,14.18
2022-09-20T18:59:23.074Z,14.17
2022-09-20T19:02:08.304Z,14.37
2022-09-20T19:04:52.047Z,14.38
2022-09-20T19:07:28.035Z,14.38
2022-09-20T19:10:06.757Z,14.39
2022-09-20T19:12:59.088Z,14.32
2022-09-20T19:15:52.388Z,14.37
2022-09-20T19:18:35.634Z,14.21
2022-09-20T19:21:32.518Z,14.38
2022-09-20T19:24:25.378Z,14.35
2022-09-20T19:26:55.263Z,14.33
2022-09-20T19:29:27.727Z,14.27
2022-09-20T19:31:57.029Z,14.26
2022-09-20T19:34:28.948Z,14.28
2022-09-20T19:37:18.885Z,14.21
2022-09-20T19:40:29.902Z,14.13
2022-09-20T19:43:19.389Z,14.19
2022-09-20T19:46:11.584Z,14.19
2022-09-20T19:48:40.553Z,14.17
2022-09-20T19:51:12.153Z,14.09
2022-09-20T19:53:39.248Z,13.97
2022-09-20T19:56:15.162Z,14.11
2022-09-20T19:58:43.279Z,14.13
2022-09-20T20:01:10.186Z,14.14
2022-09-20T20:03:37.155Z,13.99
2022-09-20T20:06:16.505Z,14.04
2022-09-20T20:08:55.917Z,14.12
2022-09-20T20:11:50.201Z,14.15
2022-09-20T20:14:24.351Z,14.18
2022-09-20T20:17:14.811Z,14.09
2022-09-20T20:20:05.865Z,14.16
2022-09-20T20:22:32.310Z,14.17
2022-09-20T20:24:59.224Z,13.98
2022-09-20T20:27:28.462Z,14.14
2022-09-20T20:29:55.602Z,14.09
2022-09-20T20:32:22.458Z,14.15
2022-09-20T20:34:49.449Z,14.14
2022-09-20T20:37:16.079Z,14.06
2022-09-20T20:39:42.609Z,14.02
2022-09-20T20:42:12.941Z,13.95
2022-09-20T20:44:39.986Z,13.97
2022-09-20T20:47:06.742Z,13.93
2022-09-20T20:49:33.270Z,13.92
2022-09-20T20:52:04.246Z,13.94
2022-09-20T20:54:31.898Z,13.91
2022-09-20T20:56:59.305Z,13.91
2022-09-20T20:59:26.144Z,13.97
2022-09-20T21:01:53.306Z,13.94
2022-09-20T21:04:20.113Z,13.89
2022-09-20T21:06:46.604Z,13.92
2022-09-20T21:09:13.478Z,13.90
2022-09-20T21:11:44.368Z,13.96
2022-09-20T21:14:12.518Z,13.96
2022-09-20T21:16:45.009Z,13.94
2022-09-20T21:19:14.922Z,13.91
2022-09-20T21:21:43.304Z,13.90
2022-09-20T21:24:12.421Z,13.84
2022-09-20T21:26:40.290Z,13.74
2022-09-20T21:29:10.566Z,13.71
2022-09-20T21:31:39.480Z,13.69
2022-09-20T21:34:07.539Z,13.69
2022-09-20T21:36:36.681Z,13.71
2022-09-20T21:39:04.332Z,13.61
2022-09-20T21:41:33.368Z,13.70
2022-09-20T21:44:02.446Z,13.66
2022-09-20T21:46:37.207Z,13.63
2022-09-20T21:49:05.509Z,13.59
2022-09-20T21:51:33.384Z,13.30
2022-09-20T21:54:01.827Z,13.59
2022-09-20T21:56:36.295Z,13.61
2022-09-20T21:59:04.397Z,13.62
2022-09-20T22:01:34.465Z,13.64
2022-09-20T22:04:04.902Z,13.63
2022-09-20T22:06:34.565Z,13.62
2022-09-20T22:09:04.058Z,13.62
2022-09-20T22:11:33.295Z,13.61
2022-09-20T22:14:00.110Z,13.57
2022-09-20T22:16:29.560Z,13.60
2022-09-20T22:18:56.801Z,13.63
2022-09-20T22:21:25.612Z,13.60
2022-09-20T22:23:57.685Z,13.54
2022-09-20T22:26:26.736Z,13.56
2022-09-20T22:28:53.434Z,13.40
2022-09-20T22:31:25.285Z,13.52
2022-09-20T22:33:54.776Z,13.50
2022-09-20T22:36:26.918Z,13.46
2022-09-20T22:38:54.142Z,13.41
2022-09-20T22:41:21.094Z,13.38
2022-09-20T22:43:47.668Z,13.32
2022-09-20T22:46:17.044Z,13.35
2022-09-20T22:48:44.331Z,13.32
2022-09-20T22:51:12.453Z,13.35
2022-09-20T22:53:39.100Z,13.27
2022-09-20T22:56:13.464Z,13.32
2022-09-20T22:58:42.253Z,13.24
2022-09-20T23:01:14.191Z,13.33
2022-09-20T23:03:44.622Z,13.26
2022-09-20T23:06:13.901Z,13.23
2022-09-20T23:08:40.469Z,13.16
2022-09-20T23:11:07.308Z,13.16
2022-09-20T23:13:34.067Z,13.18
2022-09-20T23:16:00.672Z,13.03
2022-09-20T23:18:27.320Z,13.19
2022-09-20T23:21:03.915Z,13.20
2022-09-20T23:23:30.605Z,13.06
2022-09-20T23:26:07.889Z,13.04
2022-09-20T23:28:36.733Z,13.07
2022-09-20T23:31:06.033Z,13.00
2022-09-20T23:33:33.108Z,12.98
2022-09-20T23:36:00.404Z,12.95
2022-09-20T23:38:27.254Z,12.61
2022-09-20T23:40:54.316Z,12.78
2022-09-20T23:43:21.009Z,12.98
2022-09-20T23:45:47.602Z,12.83
2022-09-20T23:48:14.131Z,12.79
2022-09-20T23:50:43.045Z,12.82
2022-09-20T23:53:09.665Z,12.56
2022-09-20T23:55:36.177Z,12.77
2022-09-20T23:58:02.888Z,12.81
